Time;durP1;ratioP1;P1;durP2;ratioP2;P2;SDS_P1;SDS_P2;PMS_P1;PMS_P2;Temp;Humidity;BMP_temperature;BMP_pressure;BME280_temperature;BME280_humidity;BME280_pressure;Samples;Min_cycle;Max_cycle;Signal;HPM_P1;HPM_P2
2021/09/05 00:01:30;;;;;;;15.75;10.10;;;17.30;99.90;;;;;;4107320;28;20039;-70
2021/09/05 00:03:31;;;;;;;14.95;9.93;;;17.30;99.90;;;;;;4123026;28;20042;-69
2021/09/05 00:05:32;;;;;;;14.23;9.30;;;17.30;99.90;;;;;;4125382;28;20121;-70
2021/09/05 00:07:32;;;;;;;14.00;9.38;;;17.30;99.90;;;;;;4111607;28;20039;-69
2021/09/05 00:09:33;;;;;;;14.30;9.75;;;17.30;99.90;;;;;;4124831;28;20121;-70
2021/09/05 00:11:34;;;;;;;14.10;9.95;;;17.30;99.90;;;;;;4109061;28;20105;-70
2021/09/05 00:13:35;;;;;;;16.50;10.02;;;17.30;99.90;;;;;;4115056;28;20038;-70
2021/09/05 00:15:35;;;;;;;15.75;9.85;;;17.30;99.90;;;;;;4125008;28;20034;-70
2021/09/05 00:17:37;;;;;;;14.82;9.90;;;17.20;99.90;;;;;;4125973;28;20030;-70
2021/09/05 00:19:38;;;;;;;18.20;11.00;;;17.20;99.90;;;;;;4125751;28;20502;-70
2021/09/05 00:21:38;;;;;;;12.98;9.35;;;17.20;99.90;;;;;;4126145;28;20026;-69
2021/09/05 00:23:39;;;;;;;14.50;9.55;;;17.20;99.90;;;;;;4126325;28;20049;-69
2021/09/05 00:25:40;;;;;;;13.88;9.43;;;17.10;99.90;;;;;;4125897;28;20422;-70
2021/09/05 00:27:40;;;;;;;14.68;9.68;;;17.10;99.90;;;;;;4126261;28;20070;-70
2021/09/05 00:29:41;;;;;;;15.43;9.02;;;17.20;99.90;;;;;;4111835;28;20151;-70
2021/09/05 00:31:41;;;;;;;14.02;8.95;;;17.10;99.90;;;;;;4125890;28;20048;-70
2021/09/05 00:33:42;;;;;;;15.85;9.65;;;17.10;99.90;;;;;;4125045;28;20034;-70
2021/09/05 00:35:42;;;;;;;12.75;8.70;;;17.10;99.90;;;;;;4125921;28;20073;-70
2021/09/05 00:37:43;;;;;;;13.55;8.93;;;17.10;99.90;;;;;;4125974;28;20034;-70
2021/09/05 00:39:43;;;;;;;14.38;8.90;;;17.10;99.90;;;;;;4111119;28;20511;-70
2021/09/05 00:41:44;;;;;;;13.52;9.40;;;17.00;99.90;;;;;;4125579;28;20069;-70
2021/09/05 00:44:14;;;;;;;13.55;9.32;;;17.10;99.90;;;;;;4107968;28;20823;-69
2021/09/05 00:46:14;;;;;;;15.05;9.35;;;17.00;99.90;;;;;;4101056;28;20479;-70
2021/09/05 00:48:15;;;;;;;15.05;9.30;;;17.00;99.90;;;;;;4125430;28;20034;-70
2021/09/05 00:50:15;;;;;;;13.68;9.98;;;17.00;99.90;;;;;;4125481;28;20038;-70
2021/09/05 00:52:18;;;;;;;15.02;9.63;;;17.00;99.90;;;;;;4108490;28;20045;-69
2021/09/05 00:54:19;;;;;;;12.70;8.77;;;16.90;99.90;;;;;;4125404;28;20033;-70
2021/09/05 00:56:20;;;;;;;13.52;9.07;;;17.00;99.90;;;;;;4108097;28;20060;-69
2021/09/05 00:58:21;;;;;;;15.68;8.82;;;16.90;99.90;;;;;;4123958;28;20135;-70
2021/09/05 01:00:24;;;;;;;13.20;9.13;;;16.90;99.90;;;;;;4125152;28;20391;-70
2021/09/05 01:02:25;;;;;;;12.55;9.32;;;16.90;99.90;;;;;;4125416;28;20418;-70
2021/09/05 01:04:25;;;;;;;13.02;9.10;;;16.90;99.90;;;;;;4107637;28;20035;-70
2021/09/05 01:06:26;;;;;;;14.20;9.88;;;16.90;99.90;;;;;;4125087;28;20101;-70
2021/09/05 01:08:27;;;;;;;13.80;9.07;;;16.80;99.90;;;;;;4125430;28;20027;-69
2021/09/05 01:10:27;;;;;;;13.57;9.52;;;16.80;99.90;;;;;;4125452;28;20026;-70
2021/09/05 01:12:28;;;;;;;13.38;9.38;;;16.80;99.90;;;;;;4125318;28;20478;-70
2021/09/05 01:14:29;;;;;;;12.90;9.57;;;16.70;99.90;;;;;;4125139;28;20101;-70
2021/09/05 01:16:38;;;;;;;16.67;10.15;;;16.70;99.90;;;;;;4125262;28;20054;-70
2021/09/05 01:18:38;;;;;;;14.55;9.77;;;16.60;99.90;;;;;;4124171;28;20050;-70
2021/09/05 01:20:39;;;;;;;13.80;9.90;;;16.60;99.90;;;;;;4125165;28;20125;-70
2021/09/05 01:22:39;;;;;;;17.77;10.30;;;16.60;99.90;;;;;;4110657;28;20089;-70
2021/09/05 01:24:40;;;;;;;15.05;9.90;;;16.60;99.90;;;;;;4120625;28;20058;-70
2021/09/05 01:26:46;;;;;;;15.10;9.82;;;16.50;99.90;;;;;;4125297;28;20042;-70
2021/09/05 01:28:47;;;;;;;14.93;10.20;;;16.50;99.90;;;;;;4111921;28;20046;-70
2021/09/05 01:30:47;;;;;;;15.88;9.65;;;16.50;99.90;;;;;;4110418;28;20043;-70
2021/09/05 01:32:48;;;;;;;15.98;10.38;;;16.50;99.90;;;;;;4124838;28;20034;-70
2021/09/05 01:34:48;;;;;;;14.85;10.00;;;16.50;99.90;;;;;;4125301;28;20069;-70
2021/09/05 01:36:51;;;;;;;16.33;9.70;;;16.50;99.90;;;;;;4124857;28;20037;-70
2021/09/05 01:38:51;;;;;;;14.93;9.80;;;16.50;99.90;;;;;;4123748;28;20042;-70
2021/09/05 01:40:52;;;;;;;16.77;10.15;;;16.50;99.90;;;;;;4124848;28;20394;-70
2021/09/05 01:42:52;;;;;;;17.92;10.60;;;16.40;99.90;;;;;;4125091;28;20505;-70
2021/09/05 01:44:53;;;;;;;14.25;10.20;;;16.40;99.90;;;;;;4124605;28;20046;-70
2021/09/05 01:46:54;;;;;;;15.23;10.05;;;16.40;99.90;;;;;;4124004;28;20604;-70
2021/09/05 01:48:55;;;;;;;16.85;10.38;;;16.40;99.90;;;;;;4123236;28;20038;-70
2021/09/05 01:50:56;;;;;;;14.13;9.73;;;16.40;99.90;;;;;;4123753;28;20076;-70
2021/09/05 01:52:56;;;;;;;16.70;10.38;;;16.30;99.90;;;;;;4125194;28;20378;-70
2021/09/05 01:54:57;;;;;;;15.43;10.38;;;16.30;99.90;;;;;;4121016;28;20057;-70
2021/09/05 01:56:57;;;;;;;15.80;9.60;;;16.30;99.90;;;;;;4124767;28;20041;-70
2021/09/05 01:58:59;;;;;;;14.65;9.55;;;16.30;99.90;;;;;;4123717;28;20114;-70
2021/09/05 02:01:00;;;;;;;16.10;10.40;;;16.30;99.90;;;;;;4124374;28;20034;-70
2021/09/05 02:03:01;;;;;;;15.70;10.02;;;16.30;99.90;;;;;;4111009;28;20393;-70
2021/09/05 02:05:01;;;;;;;14.80;10.23;;;16.20;99.90;;;;;;4109182;28;20075;-70
2021/09/05 02:07:02;;;;;;;16.48;9.85;;;16.20;99.90;;;;;;4125219;28;20037;-70
2021/09/05 02:09:02;;;;;;;13.45;9.85;;;16.20;99.90;;;;;;4121486;28;20034;-70
2021/09/05 02:11:03;;;;;;;13.88;9.13;;;16.20;99.90;;;;;;4122109;28;20101;-70
2021/09/05 02:13:04;;;;;;;13.82;9.27;;;16.20;99.90;;;;;;4108259;28;20096;-70
2021/09/05 02:15:05;;;;;;;12.73;8.95;;;16.20;99.90;;;;;;4124281;28;20026;-69
2021/09/05 02:17:05;;;;;;;14.75;9.23;;;16.20;99.90;;;;;;4124057;28;20035;-70
2021/09/05 02:19:06;;;;;;;14.98;10.30;;;16.30;99.90;;;;;;4124261;28;20559;-70
2021/09/05 02:21:07;;;;;;;13.70;9.52;;;16.30;99.90;;;;;;4124450;28;20034;-69
2021/09/05 02:23:07;;;;;;;15.95;8.38;;;16.30;99.90;;;;;;4124465;28;20711;-70
2021/09/05 02:25:08;;;;;;;12.10;8.43;;;16.30;99.90;;;;;;4108315;28;20039;-70
2021/09/05 02:27:09;;;;;;;14.88;9.23;;;16.30;99.90;;;;;;4123144;28;20031;-69
2021/09/05 02:29:09;;;;;;;13.38;9.18;;;16.30;99.90;;;;;;4106605;28;20046;-70
2021/09/05 02:31:10;;;;;;;12.50;8.85;;;16.30;99.90;;;;;;4123000;28;20101;-70
2021/09/05 02:33:11;;;;;;;13.43;8.98;;;16.30;99.90;;;;;;4123087;28;20059;-70
2021/09/05 02:35:11;;;;;;;14.75;9.93;;;16.30;99.90;;;;;;4123846;28;20038;-70
2021/09/05 02:37:12;;;;;;;14.10;9.63;;;16.30;99.90;;;;;;4103780;28;20050;-70
2021/09/05 02:39:13;;;;;;;14.25;8.55;;;16.30;99.90;;;;;;4123658;28;20050;-70
2021/09/05 02:41:13;;;;;;;14.75;9.77;;;16.30;99.90;;;;;;4124017;28;20100;-70
2021/09/05 02:43:14;;;;;;;15.05;10.07;;;16.30;99.90;;;;;;4123942;28;20089;-70
2021/09/05 02:45:15;;;;;;;14.82;9.63;;;16.30;99.90;;;;;;4123392;28;20106;-70
2021/09/05 02:47:15;;;;;;;15.27;9.55;;;16.30;99.90;;;;;;4120813;28;21580;-70
2021/09/05 02:49:16;;;;;;;14.93;9.18;;;16.30;99.90;;;;;;4123230;28;20054;-69
2021/09/05 02:51:17;;;;;;;15.48;10.32;;;16.30;99.90;;;;;;4123711;28;20053;-70
2021/09/05 02:53:18;;;;;;;14.57;9.60;;;16.30;99.90;;;;;;4123989;28;20031;-70
2021/09/05 02:55:19;;;;;;;14.63;9.82;;;16.30;99.90;;;;;;4122110;28;20053;-70
2021/09/05 02:57:20;;;;;;;17.50;9.93;;;16.30;99.90;;;;;;4103903;28;20039;-70
2021/09/05 02:59:20;;;;;;;15.75;10.05;;;16.30;99.90;;;;;;4119361;28;20042;-70
2021/09/05 03:01:21;;;;;;;15.13;10.43;;;16.30;99.90;;;;;;4122641;28;20038;-70
2021/09/05 03:03:21;;;;;;;13.63;9.65;;;16.30;99.90;;;;;;4118826;28;20038;-70
2021/09/05 03:05:22;;;;;;;15.05;9.93;;;16.30;99.90;;;;;;4108818;28;20064;-70
2021/09/05 03:07:22;;;;;;;16.20;10.55;;;16.30;99.90;;;;;;4120561;28;20050;-70
2021/09/05 03:09:23;;;;;;;15.43;10.43;;;16.30;99.90;;;;;;4118271;28;20505;-70
2021/09/05 03:11:23;;;;;;;16.42;10.57;;;16.20;99.90;;;;;;4122909;28;20547;-70
2021/09/05 03:13:24;;;;;;;15.07;10.05;;;16.20;99.90;;;;;;4121348;28;20042;-70
2021/09/05 03:15:25;;;;;;;14.73;10.32;;;16.20;99.90;;;;;;4117792;28;20378;-70
2021/09/05 03:17:27;;;;;;;15.48;9.82;;;16.20;99.90;;;;;;4102356;28;20082;-70
2021/09/05 03:19:27;;;;;;;14.35;10.32;;;16.20;99.90;;;;;;4120184;28;20535;-70
2021/09/05 03:21:28;;;;;;;13.88;10.13;;;16.20;99.90;;;;;;4115955;28;20118;-70
2021/09/05 03:23:29;;;;;;;14.70;9.80;;;16.20;99.90;;;;;;4119536;28;20030;-70
2021/09/05 03:25:29;;;;;;;14.98;9.73;;;16.20;99.90;;;;;;4119306;28;20034;-70
2021/09/05 03:27:30;;;;;;;13.63;9.88;;;16.20;99.90;;;;;;4112966;28;20042;-69
2021/09/05 03:29:30;;;;;;;14.43;10.07;;;16.20;99.90;;;;;;4128668;28;20049;-70
2021/09/05 03:31:31;;;;;;;15.90;10.07;;;16.10;99.90;;;;;;4127300;28;20121;-70
2021/09/05 03:33:32;;;;;;;16.35;10.38;;;16.10;99.90;;;;;;4124570;28;20043;-70
2021/09/05 03:35:32;;;;;;;16.73;10.25;;;16.10;99.90;;;;;;4123800;28;20041;-70
2021/09/05 03:37:33;;;;;;;14.63;9.88;;;16.10;99.90;;;;;;4128972;28;20045;-70
2021/09/05 03:39:35;;;;;;;14.65;10.63;;;16.10;99.90;;;;;;4126945;28;20219;-70
2021/09/05 03:41:35;;;;;;;14.45;9.60;;;16.10;99.90;;;;;;4130182;28;20046;-70
2021/09/05 03:43:36;;;;;;;16.90;10.32;;;16.10;99.90;;;;;;4126643;28;20546;-70
2021/09/05 03:45:36;;;;;;;15.20;10.18;;;16.10;99.90;;;;;;4135683;28;20649;-69
2021/09/05 03:47:37;;;;;;;14.23;9.93;;;16.00;99.90;;;;;;4132381;28;20453;-70
2021/09/05 03:49:38;;;;;;;17.58;10.45;;;16.00;99.90;;;;;;4127785;28;20509;-70
2021/09/05 03:51:38;;;;;;;17.10;11.32;;;16.00;99.90;;;;;;4126781;28;20034;-70
2021/09/05 03:53:39;;;;;;;20.13;10.23;;;16.00;99.90;;;;;;4129356;28;20030;-70
2021/09/05 03:55:39;;;;;;;16.02;10.85;;;16.00;99.90;;;;;;4128618;28;20117;-70
2021/09/05 03:57:40;;;;;;;15.18;10.15;;;16.00;99.90;;;;;;4134884;28;20044;-70
2021/09/05 03:59:40;;;;;;;16.60;10.50;;;16.00;99.90;;;;;;4136008;28;20411;-70
2021/09/05 04:01:41;;;;;;;15.13;10.40;;;16.00;99.90;;;;;;4128119;28;20066;-70
2021/09/05 04:03:42;;;;;;;15.20;10.57;;;16.00;99.90;;;;;;4132582;28;20105;-70
2021/09/05 04:05:42;;;;;;;16.92;11.25;;;16.00;99.90;;;;;;4133783;28;20058;-70
2021/09/05 04:07:50;;;;;;;16.08;10.50;;;16.00;99.90;;;;;;4122857;28;20042;-70
2021/09/05 04:10:09;;;;;;;16.45;10.38;;;15.90;99.90;;;;;;4128224;28;20038;-70
2021/09/05 04:12:09;;;;;;;15.40;10.75;;;15.90;99.90;;;;;;4132068;28;20038;-70
2021/09/05 04:14:10;;;;;;;15.95;10.70;;;15.90;99.90;;;;;;4129829;28;21940;-70
2021/09/05 04:16:11;;;;;;;16.23;10.95;;;15.90;99.90;;;;;;4129038;28;20211;-70
2021/09/05 04:18:12;;;;;;;17.98;11.45;;;15.90;99.90;;;;;;4119374;28;20138;-70
2021/09/05 04:20:12;;;;;;;16.33;11.10;;;15.90;99.90;;;;;;4133857;28;20050;-70
2021/09/05 04:22:13;;;;;;;18.65;12.13;;;15.90;99.90;;;;;;4133123;28;20097;-70
2021/09/05 04:24:14;;;;;;;16.77;11.43;;;15.90;99.90;;;;;;4129738;28;20025;-70
2021/09/05 04:26:14;;;;;;;17.40;11.20;;;15.90;99.90;;;;;;4131387;28;20631;-70
2021/09/05 04:28:15;;;;;;;15.13;10.82;;;15.90;99.90;;;;;;4132517;28;20062;-70
2021/09/05 04:30:15;;;;;;;15.02;10.02;;;15.90;99.90;;;;;;4136148;28;20034;-70
2021/09/05 04:32:17;;;;;;;18.02;11.32;;;15.90;99.90;;;;;;4137359;28;20473;-70
2021/09/05 04:34:18;;;;;;;15.73;11.23;;;15.90;99.90;;;;;;4136022;28;20061;-70
2021/09/05 04:36:18;;;;;;;17.70;11.68;;;15.90;99.90;;;;;;4132070;28;20469;-69
2021/09/05 04:38:19;;;;;;;17.42;12.05;;;15.90;99.90;;;;;;4133306;28;20038;-70
2021/09/05 04:40:20;;;;;;;18.52;11.40;;;15.80;99.90;;;;;;4114212;28;20031;-70
2021/09/05 04:42:21;;;;;;;16.88;11.40;;;15.80;99.90;;;;;;4111569;28;20039;-70
2021/09/05 04:44:21;;;;;;;17.30;11.23;;;15.80;99.90;;;;;;4112969;28;20054;-70
2021/09/05 04:46:22;;;;;;;16.40;10.77;;;15.80;99.90;;;;;;4135921;28;20033;-70
2021/09/05 04:48:22;;;;;;;14.60;10.60;;;15.70;99.90;;;;;;4134657;28;20469;-70
2021/09/05 04:50:23;;;;;;;16.63;11.70;;;15.70;99.90;;;;;;4134916;28;20041;-70
2021/09/05 04:52:24;;;;;;;17.92;11.40;;;15.70;99.90;;;;;;4122879;28;20069;-70
2021/09/05 04:54:24;;;;;;;17.60;11.02;;;15.70;99.90;;;;;;4131351;28;20104;-70
2021/09/05 04:56:25;;;;;;;16.92;11.27;;;15.70;99.90;;;;;;4127640;28;20042;-70
2021/09/05 04:58:25;;;;;;;16.48;11.82;;;15.70;99.90;;;;;;4114475;28;20062;-70
2021/09/05 05:00:26;;;;;;;20.92;12.15;;;15.70;99.90;;;;;;4126299;28;20027;-70
2021/09/05 05:02:27;;;;;;;16.92;11.40;;;15.70;99.90;;;;;;4131072;28;20188;-70
2021/09/05 05:04:27;;;;;;;18.38;12.20;;;15.70;99.90;;;;;;4114242;28;20462;-70
2021/09/05 05:06:28;;;;;;;17.00;12.48;;;15.70;99.90;;;;;;4131117;28;20034;-70
2021/09/05 05:08:28;;;;;;;16.95;11.40;;;15.70;99.90;;;;;;4122277;28;20046;-70
2021/09/05 05:10:29;;;;;;;16.33;11.00;;;15.60;99.90;;;;;;4107794;28;20031;-70
2021/09/05 05:12:29;;;;;;;17.75;12.32;;;15.60;99.90;;;;;;4124969;28;20050;-70
2021/09/05 05:14:30;;;;;;;20.20;12.07;;;15.60;99.90;;;;;;4124909;28;20381;-69
2021/09/05 05:16:31;;;;;;;17.25;11.13;;;15.60;99.90;;;;;;4124984;28;20597;-70
2021/09/05 05:18:31;;;;;;;17.85;12.60;;;15.60;99.90;;;;;;4107548;28;20463;-70
2021/09/05 05:20:32;;;;;;;16.48;11.52;;;15.60;99.90;;;;;;4123660;28;20050;-70
2021/09/05 05:22:32;;;;;;;15.38;11.10;;;15.50;99.90;;;;;;4113620;28;20038;-70
2021/09/05 05:24:33;;;;;;;16.05;10.55;;;15.60;99.90;;;;;;4115633;28;20077;-70
2021/09/05 05:26:34;;;;;;;15.75;10.35;;;15.60;99.90;;;;;;4106631;28;20031;-70
2021/09/05 05:28:35;;;;;;;15.73;10.85;;;15.60;99.90;;;;;;4122426;28;20042;-70
2021/09/05 05:30:36;;;;;;;14.05;10.68;;;15.60;99.90;;;;;;4116265;28;20042;-70
2021/09/05 05:32:36;;;;;;;16.70;10.80;;;15.60;99.90;;;;;;4116020;28;20541;-70
2021/09/05 05:34:37;;;;;;;17.80;11.05;;;15.60;99.90;;;;;;4099401;28;20034;-70
2021/09/05 05:36:38;;;;;;;15.63;10.57;;;15.60;99.90;;;;;;4116641;28;20076;-70
2021/09/05 05:38:43;;;;;;;18.70;10.95;;;15.60;99.90;;;;;;4115491;28;20097;-70
2021/09/05 05:40:43;;;;;;;14.57;10.07;;;15.60;99.90;;;;;;4123116;28;20038;-70
2021/09/05 05:42:44;;;;;;;15.35;10.23;;;15.60;99.90;;;;;;4121472;28;20042;-70
2021/09/05 05:44:44;;;;;;;16.05;10.63;;;15.70;99.90;;;;;;4125312;28;21256;-70
2021/09/05 05:46:45;;;;;;;18.65;11.80;;;15.70;99.90;;;;;;4133158;28;20038;-70
2021/09/05 05:48:46;;;;;;;16.20;11.18;;;15.70;99.90;;;;;;4121121;28;20108;-70
2021/09/05 05:50:47;;;;;;;19.48;11.02;;;15.70;99.90;;;;;;4125739;28;20654;-70
2021/09/05 05:52:48;;;;;;;16.10;11.55;;;15.70;99.90;;;;;;4126069;28;20035;-70
2021/09/05 05:54:49;;;;;;;17.27;11.77;;;15.70;99.90;;;;;;4128686;28;20049;-70
2021/09/05 05:56:49;;;;;;;18.35;11.98;;;15.70;99.90;;;;;;4121317;28;20027;-70
2021/09/05 05:58:50;;;;;;;16.63;11.57;;;15.70;99.90;;;;;;4123779;28;20498;-71
2021/09/05 06:00:50;;;;;;;18.52;12.00;;;15.70;99.90;;;;;;4123517;28;20042;-71
2021/09/05 06:02:52;;;;;;;19.65;12.63;;;15.70;99.90;;;;;;4124806;28;20048;-71
2021/09/05 06:04:52;;;;;;;21.02;12.65;;;15.80;99.90;;;;;;4128836;28;20034;-71
2021/09/05 06:06:53;;;;;;;22.92;13.60;;;15.70;99.90;;;;;;4123623;28;20042;-71
2021/09/05 06:08:53;;;;;;;25.48;13.48;;;15.70;99.90;;;;;;4127499;28;20050;-71
2021/09/05 06:10:54;;;;;;;21.08;13.38;;;15.70;99.90;;;;;;4130961;28;20049;-71
2021/09/05 06:12:55;;;;;;;22.00;14.20;;;15.70;99.90;;;;;;4124242;28;20047;-71
2021/09/05 06:14:56;;;;;;;21.67;13.65;;;15.70;99.90;;;;;;4125425;28;20082;-72
2021/09/05 06:16:56;;;;;;;21.20;13.15;;;15.70;99.90;;;;;;4124428;28;20030;-71
2021/09/05 06:18:57;;;;;;;19.33;12.80;;;15.70;99.90;;;;;;4128685;28;20038;-71
2021/09/05 06:20:57;;;;;;;18.30;12.27;;;15.70;99.90;;;;;;4127526;28;20026;-71
2021/09/05 06:22:58;;;;;;;20.80;13.55;;;15.70;99.90;;;;;;4123574;28;20030;-71
2021/09/05 06:24:58;;;;;;;21.13;13.68;;;15.70;99.90;;;;;;4126601;28;20034;-71
2021/09/05 06:26:59;;;;;;;22.27;13.68;;;15.70;99.90;;;;;;4121480;28;20034;-71
2021/09/05 06:29:00;;;;;;;22.48;13.43;;;15.70;99.90;;;;;;4124993;28;20827;-71
2021/09/05 06:31:00;;;;;;;20.05;12.95;;;15.70;99.90;;;;;;4124563;28;20108;-71
2021/09/05 06:33:01;;;;;;;19.75;13.20;;;15.70;99.90;;;;;;4133110;28;20039;-71
2021/09/05 06:35:02;;;;;;;21.25;14.43;;;15.70;99.90;;;;;;4129984;28;20089;-71
2021/09/05 06:37:02;;;;;;;21.55;13.82;;;15.70;99.90;;;;;;4124744;28;20042;-71
2021/09/05 06:39:03;;;;;;;23.92;14.63;;;15.70;99.90;;;;;;4120229;28;20129;-71
2021/09/05 06:41:04;;;;;;;20.95;14.35;;;15.70;99.90;;;;;;4114421;28;20152;-71
2021/09/05 06:43:05;;;;;;;24.75;15.02;;;15.70;99.90;;;;;;4107242;28;20053;-71
2021/09/05 06:45:06;;;;;;;24.75;15.02;;;15.70;99.90;;;;;;4105254;28;20058;-71
2021/09/05 06:47:07;;;;;;;34.95;16.40;;;15.70;99.90;;;;;;4122367;28;20050;-71
2021/09/05 06:49:08;;;;;;;23.23;14.65;;;15.60;99.90;;;;;;4124540;28;20659;-71
2021/09/05 06:51:12;;;;;;;24.27;15.30;;;15.60;99.90;;;;;;4124818;28;20026;-71
2021/09/05 06:53:13;;;;;;;22.90;15.27;;;15.60;99.90;;;;;;4126322;28;20046;-71
2021/09/05 06:55:13;;;;;;;24.05;15.07;;;15.60;99.90;;;;;;4124360;28;20047;-71
2021/09/05 06:57:14;;;;;;;22.58;14.85;;;15.60;99.90;;;;;;4129303;28;20042;-72
2021/09/05 06:59:15;;;;;;;24.13;15.32;;;15.60;99.90;;;;;;4127393;28;20100;-71
2021/09/05 07:01:16;;;;;;;25.98;15.10;;;15.70;99.90;;;;;;4123564;28;20126;-71
2021/09/05 07:03:18;;;;;;;27.40;15.68;;;15.60;99.90;;;;;;4116887;28;20034;-71
2021/09/05 07:05:19;;;;;;;25.20;14.82;;;15.60;99.90;;;;;;4128182;28;22934;-71
2021/09/05 07:07:19;;;;;;;26.10;15.00;;;15.60;99.90;;;;;;4134723;28;20045;-71
2021/09/05 07:09:20;;;;;;;24.08;14.80;;;15.60;99.90;;;;;;4130636;28;20048;-71
2021/09/05 07:11:20;;;;;;;26.48;14.60;;;15.60;99.90;;;;;;4125675;28;20054;-71
2021/09/05 07:13:21;;;;;;;24.98;14.57;;;15.60;99.90;;;;;;4132718;28;20077;-71
2021/09/05 07:15:22;;;;;;;25.50;15.00;;;15.70;99.90;;;;;;4129139;28;20501;-71
2021/09/05 07:17:22;;;;;;;23.77;15.07;;;15.70;99.90;;;;;;4126671;28;20030;-71
2021/09/05 07:19:23;;;;;;;24.33;15.18;;;15.70;99.90;;;;;;4134297;28;20125;-71
2021/09/05 07:21:23;;;;;;;23.77;15.57;;;15.70;99.90;;;;;;4127525;28;20054;-72
2021/09/05 07:23:24;;;;;;;25.35;15.65;;;15.80;99.90;;;;;;4125265;28;20034;-71
2021/09/05 07:25:26;;;;;;;25.20;14.15;;;15.90;99.90;;;;;;4132624;28;20049;-71
2021/09/05 07:27:27;;;;;;;24.10;14.02;;;16.00;99.90;;;;;;4123401;28;20081;-71
2021/09/05 07:29:28;;;;;;;24.55;14.70;;;16.00;99.90;;;;;;4131768;28;20026;-71
2021/09/05 07:31:28;;;;;;;25.45;14.77;;;15.90;99.90;;;;;;4126277;28;20386;-71
2021/09/05 07:33:29;;;;;;;24.27;14.27;;;16.00;99.90;;;;;;4134335;28;20134;-69
2021/09/05 07:35:30;;;;;;;26.17;14.20;;;16.10;99.90;;;;;;4132653;28;20149;-69
2021/09/05 07:37:30;;;;;;;23.25;14.50;;;16.20;99.90;;;;;;4124074;28;20034;-69
2021/09/05 07:39:32;;;;;;;21.13;13.27;;;16.20;99.90;;;;;;4122246;28;20133;-69
2021/09/05 07:41:33;;;;;;;23.70;13.82;;;16.30;99.90;;;;;;4121416;28;20039;-69
2021/09/05 07:43:33;;;;;;;24.63;13.18;;;16.30;99.90;;;;;;4126771;28;20038;-69
2021/09/05 07:45:34;;;;;;;23.65;13.63;;;16.40;99.90;;;;;;4123000;28;20062;-69
2021/09/05 07:47:35;;;;;;;17.67;11.55;;;16.50;99.90;;;;;;4122519;28;20117;-68
2021/09/05 07:49:35;;;;;;;20.33;12.98;;;16.60;99.90;;;;;;4118993;28;20133;-69
2021/09/05 07:51:36;;;;;;;25.75;13.40;;;16.60;99.90;;;;;;4121347;28;20042;-68
2021/09/05 07:53:37;;;;;;;20.48;12.80;;;16.70;99.90;;;;;;4096097;28;20053;-69
2021/09/05 07:55:37;;;;;;;26.98;13.45;;;16.70;99.90;;;;;;4123178;28;21173;-69
2021/09/05 07:57:38;;;;;;;21.25;13.13;;;16.80;99.90;;;;;;4124314;28;20046;-69
2021/09/05 07:59:38;;;;;;;20.13;11.77;;;16.80;99.90;;;;;;4123996;28;20041;-69
2021/09/05 08:01:39;;;;;;;18.75;12.90;;;16.90;99.90;;;;;;4119592;28;20042;-69
2021/09/05 08:03:40;;;;;;;24.92;13.20;;;16.90;99.90;;;;;;4126192;28;20112;-69
2021/09/05 08:05:41;;;;;;;22.55;12.52;;;17.00;99.90;;;;;;4123996;28;20136;-69
2021/09/05 08:07:42;;;;;;;18.70;11.80;;;17.10;99.90;;;;;;4121167;28;20619;-69
2021/09/05 08:09:42;;;;;;;20.67;12.57;;;17.20;99.90;;;;;;4126805;28;20045;-69
2021/09/05 08:11:43;;;;;;;20.52;12.18;;;17.30;99.90;;;;;;4120715;28;20124;-69
2021/09/05 08:13:44;;;;;;;22.42;11.38;;;17.40;99.90;;;;;;4121595;28;20034;-69
2021/09/05 08:15:45;;;;;;;20.27;12.50;;;17.60;99.90;;;;;;4122701;28;20137;-69
2021/09/05 08:17:45;;;;;;;22.17;13.02;;;17.60;99.90;;;;;;4123329;28;20046;-69
2021/09/05 08:19:48;;;;;;;21.27;11.93;;;17.60;99.90;;;;;;4123636;28;20054;-69
2021/09/05 08:21:48;;;;;;;;;;;17.70;99.90;;;;;;4120944;28;20046;-69
2021/09/05 08:23:49;;;;;;;22.70;13.50;;;17.70;99.90;;;;;;4140327;28;20340;-69
2021/09/05 08:25:50;;;;;;;18.92;12.73;;;17.80;99.90;;;;;;4121266;28;20053;-69
2021/09/05 08:27:50;;;;;;;21.85;12.13;;;17.80;99.90;;;;;;4124126;28;20049;-69
2021/09/05 08:29:51;;;;;;;23.52;13.00;;;17.90;99.90;;;;;;4121623;28;20034;-69
2021/09/05 08:31:51;;;;;;;20.65;12.77;;;17.90;99.90;;;;;;4124053;28;20038;-69
2021/09/05 08:33:52;;;;;;;20.90;12.55;;;18.00;99.90;;;;;;4121120;28;20034;-69
2021/09/05 08:35:52;;;;;;;25.58;14.23;;;18.00;99.90;;;;;;4122416;28;20033;-69
2021/09/05 08:37:53;;;;;;;18.60;12.10;;;18.10;99.90;;;;;;4136860;28;20811;-69
2021/09/05 08:39:54;;;;;;;17.42;11.25;;;18.10;99.90;;;;;;4119305;28;20667;-69
2021/09/05 08:41:56;;;;;;;17.38;11.48;;;18.20;99.90;;;;;;4121796;28;20057;-69
2021/09/05 08:43:58;;;;;;;20.90;12.27;;;18.40;99.90;;;;;;4120854;28;20041;-69
2021/09/05 08:46:00;;;;;;;19.30;11.60;;;18.60;99.90;;;;;;4121356;28;20034;-69
2021/09/05 08:48:01;;;;;;;22.70;12.68;;;18.60;99.90;;;;;;4121005;28;20030;-69
2021/09/05 08:50:05;;;;;;;18.55;10.70;;;18.70;99.90;;;;;;4122064;28;20092;-68
2021/09/05 08:52:06;;;;;;;19.02;11.57;;;18.80;99.90;;;;;;4120105;28;20402;-69
2021/09/05 08:54:07;;;;;;;19.38;10.85;;;18.90;99.90;;;;;;4119474;28;20082;-68
2021/09/05 08:56:08;;;;;;;17.63;10.50;;;19.00;99.90;;;;;;4134082;28;20057;-68
2021/09/05 08:58:09;;;;;;;19.92;11.88;;;19.20;99.90;;;;;;4122261;28;20053;-69
2021/09/05 09:00:10;;;;;;;23.23;11.23;;;19.40;99.90;;;;;;4120274;28;20038;-69
2021/09/05 09:02:11;;;;;;;20.67;11.57;;;19.60;99.90;;;;;;4122287;28;20096;-69
2021/09/05 09:04:12;;;;;;;21.00;11.50;;;19.70;99.90;;;;;;4122973;28;20042;-69
2021/09/05 09:06:20;;;;;;;20.38;11.77;;;19.80;99.90;;;;;;4121333;28;20034;-68
2021/09/05 09:08:23;;;;;;;17.40;10.65;;;19.80;99.90;;;;;;4120443;28;20092;-68
2021/09/05 09:10:23;;;;;;;16.17;10.13;;;19.90;99.90;;;;;;4120053;28;20038;-68
2021/09/05 09:12:39;;;;;;;18.95;11.52;;;20.10;99.90;;;;;;4123501;28;20049;-69
2021/09/05 09:14:42;;;;;;;16.02;10.25;;;20.10;99.90;;;;;;4121576;28;20133;-69
2021/09/05 09:16:44;;;;;;;19.10;10.77;;;20.20;99.90;;;;;;4122784;28;20494;-69
2021/09/05 09:18:45;;;;;;;18.77;10.45;;;20.30;99.90;;;;;;4125315;28;20038;-69
2021/09/05 09:20:45;;;;;;;18.23;11.00;;;20.40;99.90;;;;;;4118786;28;20053;-69
2021/09/05 09:23:07;;;;;;;15.98;10.23;;;20.50;99.90;;;;;;4121729;28;20976;-69
2021/09/05 09:25:09;;;;;;;17.00;10.48;;;20.60;99.90;;;;;;4120610;28;20482;-69
2021/09/05 09:27:11;;;;;;;;;;;20.70;99.90;;;;;;4121052;28;20888;-69
2021/09/05 09:29:16;;;;;;;14.98;9.05;;;20.80;99.90;;;;;;4119767;28;19914;-69
2021/09/05 09:31:17;;;;;;;17.33;9.88;;;20.90;99.90;;;;;;4125383;28;20591;-69
2021/09/05 09:33:25;;;;;;;17.17;9.82;;;21.10;99.90;;;;;;4122582;28;20057;-69
2021/09/05 09:35:38;;;;;;;17.98;10.95;;;21.20;99.90;;;;;;4118072;28;20058;-69
2021/09/05 09:37:47;;;;;;;16.48;9.43;;;21.40;99.90;;;;;;4118054;28;20866;-69
2021/09/05 09:39:55;;;;;;;16.50;9.73;;;21.50;99.90;;;;;;4120313;28;20050;-68
2021/09/05 09:41:55;;;;;;;20.85;10.38;;;21.60;99.90;;;;;;4122538;28;20065;-69
2021/09/05 09:44:06;;;;;;;18.17;11.32;;;21.70;99.90;;;;;;4120417;28;20031;-69
2021/09/05 09:46:15;;;;;;;18.88;10.25;;;21.80;99.90;;;;;;4119126;28;20039;-69
2021/09/05 09:48:24;;;;;;;16.25;9.77;;;21.90;99.90;;;;;;4117573;28;22858;-69
2021/09/05 09:50:24;;;;;;;16.02;9.65;;;22.00;99.90;;;;;;4118818;28;20038;-69
2021/09/05 09:52:26;;;;;;;15.95;9.25;;;22.10;99.90;;;;;;4103983;28;20031;-69
2021/09/05 09:54:27;;;;;;;16.05;9.95;;;22.20;99.90;;;;;;4110839;28;20043;-68
2021/09/05 09:56:28;;;;;;;14.98;9.35;;;22.20;99.90;;;;;;4115442;28;20037;-69
2021/09/05 09:58:29;;;;;;;14.15;9.05;;;22.30;99.90;;;;;;4103198;28;20498;-69
2021/09/05 10:00:30;;;;;;;14.15;9.65;;;22.30;99.90;;;;;;4103412;28;20019;-69
2021/09/05 10:02:37;;;;;;;13.25;8.88;;;22.40;99.90;;;;;;4108992;28;20410;-69
2021/09/05 10:04:37;;;;;;;17.33;9.48;;;22.50;99.90;;;;;;4118436;28;20122;-69
2021/09/05 10:06:38;;;;;;;14.77;9.88;;;22.50;99.90;;;;;;4104535;28;20054;-69
2021/09/05 10:08:44;;;;;;;12.30;8.50;;;22.60;99.90;;;;;;4120688;28;20038;-69
2021/09/05 10:10:47;;;;;;;11.70;8.20;;;22.70;99.90;;;;;;4118486;28;20046;-69
2021/09/05 10:12:48;;;;;;;12.50;8.27;;;22.80;99.90;;;;;;4110286;28;20038;-69
2021/09/05 10:14:52;;;;;;;15.40;9.02;;;22.80;99.90;;;;;;4103423;28;20057;-69
2021/09/05 10:16:53;;;;;;;14.15;8.35;;;22.90;99.90;;;;;;4103627;28;20027;-69
2021/09/05 10:18:56;;;;;;;15.95;8.95;;;23.00;99.90;;;;;;4104423;28;20110;-69